sensor_id;sensor_type;location;lat;lon;timestamp;pressure;altitude;pressure_sealevel;temperature;humidity
39223;BME280;24936;46.328;11.026;2024-02-04T00:00:19;94974.78;;;1.66;100.00
39223;BME280;24936;46.328;11.026;2024-02-04T00:02:45;94975.53;;;1.31;100.00
39223;BME280;24936;46.328;11.026;2024-02-04T00:05:11;94968.75;;;1.10;100.00
39223;BME280;24936;46.328;11.026;2024-02-04T00:07:36;94959.03;;;1.51;100.00
39223;BME280;24936;46.328;11.026;2024-02-04T00:10:01;94960.84;;;1.49;100.00
39223;BME280;24936;46.328;11.026;2024-02-04T00:12:27;94969.38;;;1.15;100.00
39223;BME280;24936;46.328;11.026;2024-02-04T00:14:53;94963.50;;;1.11;100.00
39223;BME280;24936;46.328;11.026;2024-02-04T00:17:18;94965.84;;;1.35;100.00
39223;BME280;24936;46.328;11.026;2024-02-04T00:19:44;94973.84;;;1.11;100.00
39223;BME280;24936;46.328;11.026;2024-02-04T00:22:09;94974.25;;;1.40;100.00
39223;BME280;24936;46.328;11.026;2024-02-04T00:24:35;94967.09;;;1.64;100.00
39223;BME280;24936;46.328;11.026;2024-02-04T00:27:00;94970.50;;;1.65;100.00
39223;BME280;24936;46.328;11.026;2024-02-04T00:29:26;94965.63;;;1.76;100.00
39223;BME280;24936;46.328;11.026;2024-02-04T00:31:51;94959.75;;;1.73;100.00
39223;BME280;24936;46.328;11.026;2024-02-04T00:34:16;94962.44;;;1.71;100.00
39223;BME280;24936;46.328;11.026;2024-02-04T00:36:42;94966.56;;;1.39;100.00
39223;BME280;24936;46.328;11.026;2024-02-04T00:39:07;94977.78;;;1.39;100.00
39223;BME280;24936;46.328;11.026;2024-02-04T00:41:34;94954.19;;;1.44;100.00
39223;BME280;24936;46.328;11.026;2024-02-04T00:44:00;94958.59;;;1.24;100.00
39223;BME280;24936;46.328;11.026;2024-02-04T00:46:25;94967.53;;;1.36;100.00
39223;BME280;24936;46.328;11.026;2024-02-04T00:48:51;94964.56;;;1.44;100.00
39223;BME280;24936;46.328;11.026;2024-02-04T00:51:16;94967.13;;;1.45;100.00
39223;BME280;24936;46.328;11.026;2024-02-04T00:53:45;94969.13;;;1.58;100.00
39223;BME280;24936;46.328;11.026;2024-02-04T00:56:11;94966.53;;;1.75;100.00
39223;BME280;24936;46.328;11.026;2024-02-04T00:58:37;94955.81;;;1.46;100.00
39223;BME280;24936;46.328;11.026;2024-02-04T01:01:03;94950.06;;;1.40;100.00
39223;BME280;24936;46.328;11.026;2024-02-04T01:03:31;94958.78;;;1.39;100.00
39223;BME280;24936;46.328;11.026;2024-02-04T01:05:56;94957.47;;;1.11;100.00
39223;BME280;24936;46.328;11.026;2024-02-04T01:08:22;94953.00;;;0.95;100.00
39223;BME280;24936;46.328;11.026;2024-02-04T01:10:48;94951.78;;;1.02;100.00
39223;BME280;24936;46.328;11.026;2024-02-04T01:13:14;94965.28;;;0.71;100.00
39223;BME280;24936;46.328;11.026;2024-02-04T01:15:39;94969.69;;;0.69;100.00
39223;BME280;24936;46.328;11.026;2024-02-04T01:18:05;94969.34;;;0.57;100.00
39223;BME280;24936;46.328;11.026;2024-02-04T01:20:30;94968.34;;;0.60;100.00
39223;BME280;24936;46.328;11.026;2024-02-04T01:22:56;94974.78;;;0.70;100.00
39223;BME280;24936;46.328;11.026;2024-02-04T01:25:21;94971.59;;;0.84;100.00
39223;BME280;24936;46.328;11.026;2024-02-04T01:27:47;94977.44;;;1.28;100.00
39223;BME280;24936;46.328;11.026;2024-02-04T01:30:12;94975.13;;;1.21;100.00
39223;BME280;24936;46.328;11.026;2024-02-04T01:32:37;94971.19;;;1.13;100.00
39223;BME280;24936;46.328;11.026;2024-02-04T01:35:03;94977.88;;;1.18;100.00
39223;BME280;24936;46.328;11.026;2024-02-04T01:37:29;94979.59;;;1.18;100.00
39223;BME280;24936;46.328;11.026;2024-02-04T01:39:54;94973.44;;;1.20;100.00
39223;BME280;24936;46.328;11.026;2024-02-04T01:42:20;94974.13;;;0.46;100.00
39223;BME280;24936;46.328;11.026;2024-02-04T01:44:46;94986.56;;;0.38;100.00
39223;BME280;24936;46.328;11.026;2024-02-04T01:47:11;94988.69;;;0.49;100.00
39223;BME280;24936;46.328;11.026;2024-02-04T01:49:37;94981.75;;;0.08;100.00
39223;BME280;24936;46.328;11.026;2024-02-04T01:52:03;94987.34;;;-0.02;100.00
39223;BME280;24936;46.328;11.026;2024-02-04T01:54:31;94998.97;;;0.09;100.00
39223;BME280;24936;46.328;11.026;2024-02-04T01:56:58;94999.25;;;0.03;100.00
39223;BME280;24936;46.328;11.026;2024-02-04T01:59:24;95001.19;;;-0.03;100.00
39223;BME280;24936;46.328;11.026;2024-02-04T02:01:55;94986.31;;;0.23;100.00
39223;BME280;24936;46.328;11.026;2024-02-04T02:04:21;94967.66;;;0.36;100.00
39223;BME280;24936;46.328;11.026;2024-02-04T02:06:46;94970.91;;;0.20;100.00
39223;BME280;24936;46.328;11.026;2024-02-04T02:09:12;94989.94;;;0.19;100.00
39223;BME280;24936;46.328;11.026;2024-02-04T02:11:41;94989.47;;;0.51;100.00
39223;BME280;24936;46.328;11.026;2024-02-04T02:14:11;94988.78;;;0.06;100.00
39223;BME280;24936;46.328;11.026;2024-02-04T02:16:38;94993.03;;;-0.36;100.00
39223;BME280;24936;46.328;11.026;2024-02-04T02:22:09;94987.41;;;0.38;100.00
39223;BME280;24936;46.328;11.026;2024-02-04T02:24:42;94989.22;;;-0.05;100.00
39223;BME280;24936;46.328;11.026;2024-02-04T02:27:07;94988.94;;;-0.42;100.00
39223;BME280;24936;46.328;11.026;2024-02-04T02:29:33;94977.63;;;-0.39;100.00
39223;BME280;24936;46.328;11.026;2024-02-04T02:31:59;94975.63;;;-0.55;100.00
39223;BME280;24936;46.328;11.026;2024-02-04T02:34:26;94970.78;;;-0.85;100.00
39223;BME280;24936;46.328;11.026;2024-02-04T02:37:00;94944.44;;;-0.72;100.00
39223;BME280;24936;46.328;11.026;2024-02-04T02:39:32;94936.41;;;-0.65;100.00
39223;BME280;24936;46.328;11.026;2024-02-04T02:42:01;94938.13;;;-0.65;100.00
39223;BME280;24936;46.328;11.026;2024-02-04T02:44:29;94940.03;;;-0.48;100.00
39223;BME280;24936;46.328;11.026;2024-02-04T02:46:57;94930.94;;;-0.36;100.00
39223;BME280;24936;46.328;11.026;2024-02-04T02:49:23;94936.38;;;-0.87;100.00
39223;BME280;24936;46.328;11.026;2024-02-04T02:51:49;94936.63;;;-0.71;100.00
39223;BME280;24936;46.328;11.026;2024-02-04T02:54:14;94931.69;;;-0.55;100.00
39223;BME280;24936;46.328;11.026;2024-02-04T02:56:40;94919.63;;;-0.34;100.00
39223;BME280;24936;46.328;11.026;2024-02-04T02:59:05;94923.88;;;-0.53;100.00
39223;BME280;24936;46.328;11.026;2024-02-04T03:01:31;94915.72;;;-0.65;100.00
39223;BME280;24936;46.328;11.026;2024-02-04T03:03:56;94910.88;;;-0.74;100.00
39223;BME280;24936;46.328;11.026;2024-02-04T03:06:22;94898.38;;;-0.63;100.00
39223;BME280;24936;46.328;11.026;2024-02-04T03:08:47;94899.41;;;-0.89;100.00
39223;BME280;24936;46.328;11.026;2024-02-04T03:11:13;94905.19;;;-0.82;100.00
39223;BME280;24936;46.328;11.026;2024-02-04T03:13:39;94900.16;;;-0.42;100.00
39223;BME280;24936;46.328;11.026;2024-02-04T03:16:10;94903.34;;;-0.36;100.00
39223;BME280;24936;46.328;11.026;2024-02-04T03:18:38;94906.56;;;-0.31;100.00
39223;BME280;24936;46.328;11.026;2024-02-04T03:21:04;94900.09;;;-0.41;100.00
39223;BME280;24936;46.328;11.026;2024-02-04T03:23:29;94908.53;;;-0.36;100.00
39223;BME280;24936;46.328;11.026;2024-02-04T03:25:55;94916.28;;;-0.36;100.00
39223;BME280;24936;46.328;11.026;2024-02-04T03:28:20;94917.66;;;-0.06;100.00
39223;BME280;24936;46.328;11.026;2024-02-04T03:30:45;94902.78;;;0.39;100.00
39223;BME280;24936;46.328;11.026;2024-02-04T03:33:11;94898.31;;;0.03;100.00
39223;BME280;24936;46.328;11.026;2024-02-04T03:35:36;94891.41;;;0.22;100.00
39223;BME280;24936;46.328;11.026;2024-02-04T03:38:02;94894.69;;;0.07;100.00
39223;BME280;24936;46.328;11.026;2024-02-04T03:40:28;94892.09;;;0.07;100.00
39223;BME280;24936;46.328;11.026;2024-02-04T03:42:53;94891.25;;;0.06;100.00
39223;BME280;24936;46.328;11.026;2024-02-04T03:45:18;94895.84;;;0.20;100.00
39223;BME280;24936;46.328;11.026;2024-02-04T03:47:45;94887.06;;;0.63;100.00
39223;BME280;24936;46.328;11.026;2024-02-04T03:50:10;94902.88;;;0.17;100.00
39223;BME280;24936;46.328;11.026;2024-02-04T03:52:36;94906.94;;;0.22;100.00
39223;BME280;24936;46.328;11.026;2024-02-04T03:55:01;94901.13;;;-0.04;100.00
39223;BME280;24936;46.328;11.026;2024-02-04T03:57:26;94911.63;;;-0.27;100.00
39223;BME280;24936;46.328;11.026;2024-02-04T03:59:52;94911.31;;;-0.20;100.00
39223;BME280;24936;46.328;11.026;2024-02-04T04:02:17;94913.56;;;0.09;100.00
39223;BME280;24936;46.328;11.026;2024-02-04T04:04:43;94911.41;;;0.19;100.00
39223;BME280;24936;46.328;11.026;2024-02-04T04:07:12;94900.09;;;-0.20;100.00
39223;BME280;24936;46.328;11.026;2024-02-04T04:09:38;94918.81;;;-0.56;100.00
39223;BME280;24936;46.328;11.026;2024-02-04T04:12:03;94921.81;;;-0.45;100.00
39223;BME280;24936;46.328;11.026;2024-02-04T04:14:29;94922.50;;;-0.84;100.00
39223;BME280;24936;46.328;11.026;2024-02-04T04:16:54;94924.38;;;-0.88;100.00
39223;BME280;24936;46.328;11.026;2024-02-04T04:19:20;94932.31;;;-0.70;100.00
39223;BME280;24936;46.328;11.026;2024-02-04T04:21:45;94936.78;;;-0.31;100.00
39223;BME280;24936;46.328;11.026;2024-02-04T04:24:11;94933.34;;;-0.54;100.00
39223;BME280;24936;46.328;11.026;2024-02-04T04:26:36;94947.75;;;-0.69;100.00
39223;BME280;24936;46.328;11.026;2024-02-04T04:29:02;94943.22;;;-0.41;100.00
39223;BME280;24936;46.328;11.026;2024-02-04T04:31:27;94933.84;;;0.39;100.00
39223;BME280;24936;46.328;11.026;2024-02-04T04:33:54;94939.28;;;-0.29;100.00
39223;BME280;24936;46.328;11.026;2024-02-04T04:36:19;94944.47;;;-0.29;100.00
39223;BME280;24936;46.328;11.026;2024-02-04T04:38:44;94938.41;;;-0.28;100.00
39223;BME280;24936;46.328;11.026;2024-02-04T04:41:10;94954.72;;;-0.06;100.00
39223;BME280;24936;46.328;11.026;2024-02-04T04:43:38;94961.00;;;-0.34;100.00
39223;BME280;24936;46.328;11.026;2024-02-04T04:46:04;94958.91;;;-0.24;100.00
39223;BME280;24936;46.328;11.026;2024-02-04T04:48:29;94964.13;;;-0.03;100.00
39223;BME280;24936;46.328;11.026;2024-02-04T04:50:55;94962.22;;;0.01;100.00
39223;BME280;24936;46.328;11.026;2024-02-04T04:53:20;94968.69;;;-0.10;100.00
39223;BME280;24936;46.328;11.026;2024-02-04T04:55:45;94965.13;;;-0.50;100.00
39223;BME280;24936;46.328;11.026;2024-02-04T04:58:11;94955.25;;;-0.63;100.00
39223;BME280;24936;46.328;11.026;2024-02-04T05:00:36;94972.00;;;-0.71;100.00
39223;BME280;24936;46.328;11.026;2024-02-04T05:03:02;94967.66;;;-0.49;100.00
39223;BME280;24936;46.328;11.026;2024-02-04T05:05:27;94974.91;;;-0.81;100.00
39223;BME280;24936;46.328;11.026;2024-02-04T05:07:53;94981.47;;;-0.50;100.00
39223;BME280;24936;46.328;11.026;2024-02-04T05:10:18;94974.25;;;-0.41;100.00
39223;BME280;24936;46.328;11.026;2024-02-04T05:12:44;94971.69;;;-0.64;100.00
39223;BME280;24936;46.328;11.026;2024-02-04T05:15:09;94970.19;;;-0.91;100.00
39223;BME280;24936;46.328;11.026;2024-02-04T05:17:35;94970.59;;;-1.04;100.00
39223;BME280;24936;46.328;11.026;2024-02-04T05:20:00;94971.69;;;-0.64;100.00
39223;BME280;24936;46.328;11.026;2024-02-04T05:22:27;94979.75;;;-0.71;100.00
39223;BME280;24936;46.328;11.026;2024-02-04T05:24:53;94979.19;;;-0.57;100.00
39223;BME280;24936;46.328;11.026;2024-02-04T05:27:18;94996.81;;;-1.13;100.00
39223;BME280;24936;46.328;11.026;2024-02-04T05:29:43;95001.41;;;-0.98;100.00
39223;BME280;24936;46.328;11.026;2024-02-04T05:32:10;94990.13;;;-0.73;100.00
39223;BME280;24936;46.328;11.026;2024-02-04T05:34:37;94997.78;;;-1.41;100.00
39223;BME280;24936;46.328;11.026;2024-02-04T05:37:02;94999.63;;;-1.19;100.00
39223;BME280;24936;46.328;11.026;2024-02-04T05:39:28;95005.72;;;-1.22;100.00
39223;BME280;24936;46.328;11.026;2024-02-04T05:41:53;95014.03;;;-1.38;100.00
39223;BME280;24936;46.328;11.026;2024-02-04T05:44:18;95011.50;;;-1.39;100.00
39223;BME280;24936;46.328;11.026;2024-02-04T05:46:44;95007.78;;;-0.84;100.00
39223;BME280;24936;46.328;11.026;2024-02-04T05:49:10;95007.38;;;-1.19;100.00
39223;BME280;24936;46.328;11.026;2024-02-04T05:51:40;95017.72;;;-1.19;100.00
39223;BME280;24936;46.328;11.026;2024-02-04T05:54:06;95028.28;;;-1.76;100.00
39223;BME280;24936;46.328;11.026;2024-02-04T05:56:32;95039.00;;;-1.38;100.00
39223;BME280;24936;46.328;11.026;2024-02-04T05:58:57;95031.06;;;-0.84;100.00
39223;BME280;24936;46.328;11.026;2024-02-04T06:01:23;95030.63;;;-0.96;100.00
39223;BME280;24936;46.328;11.026;2024-02-04T06:03:48;95034.22;;;-1.24;100.00
39223;BME280;24936;46.328;11.026;2024-02-04T06:06:14;95043.31;;;-1.13;100.00
39223;BME280;24936;46.328;11.026;2024-02-04T06:08:41;95032.03;;;-0.87;100.00
39223;BME280;24936;46.328;11.026;2024-02-04T06:11:10;95037.78;;;-1.28;100.00
39223;BME280;24936;46.328;11.026;2024-02-04T06:13:35;95043.22;;;-1.35;100.00
39223;BME280;24936;46.328;11.026;2024-02-04T06:16:01;95038.31;;;-1.18;100.00
39223;BME280;24936;46.328;11.026;2024-02-04T06:18:26;95040.81;;;-1.40;100.00
39223;BME280;24936;46.328;11.026;2024-02-04T06:20:52;95038.03;;;-1.59;100.00
39223;BME280;24936;46.328;11.026;2024-02-04T06:23:17;95029.84;;;-1.47;100.00
39223;BME280;24936;46.328;11.026;2024-02-04T06:25:44;95051.50;;;-1.26;100.00
39223;BME280;24936;46.328;11.026;2024-02-04T06:28:10;95048.53;;;-0.91;100.00
39223;BME280;24936;46.328;11.026;2024-02-04T06:30:36;95044.09;;;-0.87;100.00
39223;BME280;24936;46.328;11.026;2024-02-04T06:33:01;95048.13;;;-1.04;100.00
39223;BME280;24936;46.328;11.026;2024-02-04T06:35:28;95053.19;;;-1.01;100.00
39223;BME280;24936;46.328;11.026;2024-02-04T06:37:53;95046.34;;;-0.78;100.00
39223;BME280;24936;46.328;11.026;2024-02-04T06:40:18;95051.28;;;-0.72;100.00
39223;BME280;24936;46.328;11.026;2024-02-04T06:42:44;95041.63;;;-0.90;100.00
39223;BME280;24936;46.328;11.026;2024-02-04T06:45:09;95039.94;;;-1.15;100.00
39223;BME280;24936;46.328;11.026;2024-02-04T06:47:35;95059.94;;;-1.46;100.00
39223;BME280;24936;46.328;11.026;2024-02-04T06:50:00;95052.94;;;-1.18;100.00
39223;BME280;24936;46.328;11.026;2024-02-04T06:52:29;95042.78;;;-1.23;100.00
39223;BME280;24936;46.328;11.026;2024-02-04T06:54:55;95056.09;;;-1.34;100.00
39223;BME280;24936;46.328;11.026;2024-02-04T06:57:20;95053.91;;;-1.21;100.00
39223;BME280;24936;46.328;11.026;2024-02-04T06:59:46;95054.00;;;-1.24;100.00
39223;BME280;24936;46.328;11.026;2024-02-04T07:02:12;95048.91;;;-1.02;100.00
39223;BME280;24936;46.328;11.026;2024-02-04T07:04:37;95052.06;;;-1.17;100.00
39223;BME280;24936;46.328;11.026;2024-02-04T07:07:02;95044.72;;;-1.28;100.00
39223;BME280;24936;46.328;11.026;2024-02-04T07:09:28;95050.94;;;-1.34;100.00
39223;BME280;24936;46.328;11.026;2024-02-04T07:11:53;95052.66;;;-1.09;100.00
39223;BME280;24936;46.328;11.026;2024-02-04T07:14:19;95042.09;;;-0.79;100.00
39223;BME280;24936;46.328;11.026;2024-02-04T07:16:44;95043.31;;;-1.13;100.00
39223;BME280;24936;46.328;11.026;2024-02-04T07:19:10;95044.88;;;-0.85;100.00
39223;BME280;24936;46.328;11.026;2024-02-04T07:21:35;95040.53;;;-0.61;100.00
39223;BME280;24936;46.328;11.026;2024-02-04T07:24:01;95042.09;;;-0.12;100.00
39223;BME280;24936;46.328;11.026;2024-02-04T07:26:26;95039.41;;;-0.09;100.00
39223;BME280;24936;46.328;11.026;2024-02-04T07:28:52;95037.91;;;-0.15;100.00
39223;BME280;24936;46.328;11.026;2024-02-04T07:33:44;95028.44;;;0.06;100.00
39223;BME280;24936;46.328;11.026;2024-02-04T07:36:11;95025.66;;;0.11;100.00
39223;BME280;24936;46.328;11.026;2024-02-04T07:38:36;95037.19;;;-0.19;100.00
39223;BME280;24936;46.328;11.026;2024-02-04T07:41:02;95051.50;;;0.12;100.00
39223;BME280;24936;46.328;11.026;2024-02-04T07:43:28;95040.94;;;0.79;100.00
39223;BME280;24936;46.328;11.026;2024-02-04T07:45:53;95041.28;;;1.11;100.00
39223;BME280;24936;46.328;11.026;2024-02-04T07:48:19;95034.28;;;1.13;100.00
39223;BME280;24936;46.328;11.026;2024-02-04T07:50:46;95035.31;;;1.09;100.00
39223;BME280;24936;46.328;11.026;2024-02-04T07:53:11;95034.03;;;0.99;100.00
39223;BME280;24936;46.328;11.026;2024-02-04T07:55:36;95041.25;;;0.92;100.00
39223;BME280;24936;46.328;11.026;2024-02-04T07:58:02;95033.88;;;0.83;100.00
39223;BME280;24936;46.328;11.026;2024-02-04T08:00:28;95034.50;;;0.88;100.00
39223;BME280;24936;46.328;11.026;2024-02-04T08:02:55;95030.25;;;1.06;100.00
39223;BME280;24936;46.328;11.026;2024-02-04T08:05:20;95035.53;;;1.43;100.00
39223;BME280;24936;46.328;11.026;2024-02-04T08:07:46;95040.47;;;2.22;100.00
39223;BME280;24936;46.328;11.026;2024-02-04T08:10:12;95039.47;;;2.60;100.00
39223;BME280;24936;46.328;11.026;2024-02-04T08:12:37;95034.75;;;2.51;100.00
39223;BME280;24936;46.328;11.026;2024-02-04T08:15:03;95029.09;;;2.42;100.00
39223;BME280;24936;46.328;11.026;2024-02-04T08:17:30;95042.44;;;2.70;100.00
39223;BME280;24936;46.328;11.026;2024-02-04T08:19:57;95041.63;;;3.03;100.00
39223;BME280;24936;46.328;11.026;2024-02-04T08:22:22;95043.34;;;3.36;100.00
39223;BME280;24936;46.328;11.026;2024-02-04T08:24:48;95039.69;;;3.40;100.00
39223;BME280;24936;46.328;11.026;2024-02-04T08:27:13;95046.97;;;3.49;100.00
39223;BME280;24936;46.328;11.026;2024-02-04T08:29:43;95048.78;;;3.81;100.00
39223;BME280;24936;46.328;11.026;2024-02-04T08:32:08;95046.25;;;3.95;100.00
39223;BME280;24936;46.328;11.026;2024-02-04T08:34:34;95041.22;;;3.92;100.00
39223;BME280;24936;46.328;11.026;2024-02-04T08:36:59;95040.00;;;4.14;100.00
39223;BME280;24936;46.328;11.026;2024-02-04T08:39:25;95039.50;;;4.23;100.00
39223;BME280;24936;46.328;11.026;2024-02-04T08:41:51;95047.22;;;4.25;100.00
39223;BME280;24936;46.328;11.026;2024-02-04T08:44:17;95043.69;;;4.26;100.00
39223;BME280;24936;46.328;11.026;2024-02-04T08:46:43;95047.25;;;4.39;100.00
39223;BME280;24936;46.328;11.026;2024-02-04T08:49:08;95039.03;;;4.62;100.00
39223;BME280;24936;46.328;11.026;2024-02-04T08:51:34;95035.38;;;4.80;100.00
39223;BME280;24936;46.328;11.026;2024-02-04T08:53:59;95049.53;;;4.90;100.00
39223;BME280;24936;46.328;11.026;2024-02-04T08:56:25;95033.59;;;4.95;100.00
39223;BME280;24936;46.328;11.026;2024-02-04T08:58:51;95032.66;;;4.96;100.00
39223;BME280;24936;46.328;11.026;2024-02-04T09:01:16;95045.41;;;5.73;100.00
39223;BME280;24936;46.328;11.026;2024-02-04T09:03:42;95055.09;;;6.81;100.00
39223;BME280;24936;46.328;11.026;2024-02-04T09:06:08;95042.91;;;7.83;100.00
39223;BME280;24936;46.328;11.026;2024-02-04T09:08:33;95039.59;;;8.90;100.00
39223;BME280;24936;46.328;11.026;2024-02-04T09:10:59;95038.19;;;10.10;100.00
39223;BME280;24936;46.328;11.026;2024-02-04T09:13:24;95046.78;;;11.53;100.00
39223;BME280;24936;46.328;11.026;2024-02-04T09:15:50;95046.31;;;13.37;88.24
39223;BME280;24936;46.328;11.026;2024-02-04T09:18:15;95050.00;;;14.76;61.04
39223;BME280;24936;46.328;11.026;2024-02-04T09:20:41;95038.97;;;15.78;54.22
39223;BME280;24936;46.328;11.026;2024-02-04T09:23:07;95042.66;;;15.06;50.87
39223;BME280;24936;46.328;11.026;2024-02-04T09:25:32;95043.34;;;16.22;45.75
39223;BME280;24936;46.328;11.026;2024-02-04T09:27:58;95028.31;;;14.62;60.28
39223;BME280;24936;46.328;11.026;2024-02-04T09:30:24;95032.28;;;13.27;80.27
39223;BME280;24936;46.328;11.026;2024-02-04T09:32:49;95027.22;;;13.53;73.87
39223;BME280;24936;46.328;11.026;2024-02-04T09:35:16;95018.53;;;14.63;74.27
39223;BME280;24936;46.328;11.026;2024-02-04T09:37:42;95013.41;;;13.69;74.99
39223;BME280;24936;46.328;11.026;2024-02-04T09:40:08;95008.97;;;12.93;96.98
39223;BME280;24936;46.328;11.026;2024-02-04T09:42:34;95010.69;;;14.53;87.51
39223;BME280;24936;46.328;11.026;2024-02-04T09:45:00;95023.19;;;16.70;53.49
39223;BME280;24936;46.328;11.026;2024-02-04T09:47:26;95013.94;;;17.97;49.21
39223;BME280;24936;46.328;11.026;2024-02-04T09:49:53;95023.22;;;15.76;48.32
39223;BME280;24936;46.328;11.026;2024-02-04T09:52:28;95001.47;;;15.20;59.51
39223;BME280;24936;46.328;11.026;2024-02-04T09:54:59;94995.69;;;14.26;68.59
39223;BME280;24936;46.328;11.026;2024-02-04T09:57:25;95002.22;;;14.86;67.57
39223;BME280;24936;46.328;11.026;2024-02-04T09:59:51;95005.28;;;14.09;66.52
39223;BME280;24936;46.328;11.026;2024-02-04T10:02:17;94998.50;;;14.60;73.85
39223;BME280;24936;46.328;11.026;2024-02-04T10:04:43;94997.84;;;16.25;61.15
39223;BME280;24936;46.328;11.026;2024-02-04T10:07:09;94997.50;;;17.12;48.79
39223;BME280;24936;46.328;11.026;2024-02-04T10:09:34;94996.66;;;15.15;58.34
39223;BME280;24936;46.328;11.026;2024-02-04T10:12:00;94993.19;;;13.78;73.61
39223;BME280;24936;46.328;11.026;2024-02-04T10:14:26;94996.44;;;13.90;79.79
39223;BME280;24936;46.328;11.026;2024-02-04T10:16:52;94993.97;;;13.88;80.82
39223;BME280;24936;46.328;11.026;2024-02-04T10:19:18;94991.94;;;13.72;76.20
39223;BME280;24936;46.328;11.026;2024-02-04T10:21:43;94982.66;;;15.57;64.92
39223;BME280;24936;46.328;11.026;2024-02-04T10:24:09;94973.97;;;14.58;66.09
39223;BME280;24936;46.328;11.026;2024-02-04T10:26:35;94980.81;;;14.61;61.22
39223;BME280;24936;46.328;11.026;2024-02-04T10:29:03;94969.97;;;14.18;75.85
39223;BME280;24936;46.328;11.026;2024-02-04T10:31:29;94978.84;;;13.99;72.73
39223;BME280;24936;46.328;11.026;2024-02-04T10:33:55;94968.13;;;13.35;72.59
39223;BME280;24936;46.328;11.026;2024-02-04T10:36:21;94970.78;;;12.58;92.81
39223;BME280;24936;46.328;11.026;2024-02-04T10:38:47;94960.81;;;13.19;99.24
39223;BME280;24936;46.328;11.026;2024-02-04T10:41:17;94949.25;;;12.62;93.65
39223;BME280;24936;46.328;11.026;2024-02-04T10:43:44;94957.44;;;12.69;100.00
39223;BME280;24936;46.328;11.026;2024-02-04T10:46:13;94963.69;;;12.78;100.00
39223;BME280;24936;46.328;11.026;2024-02-04T10:48:41;94956.50;;;13.18;100.00
39223;BME280;24936;46.328;11.026;2024-02-04T10:51:15;94954.16;;;13.14;100.00
39223;BME280;24936;46.328;11.026;2024-02-04T10:53:44;94949.94;;;13.69;92.40
39223;BME280;24936;46.328;11.026;2024-02-04T10:56:25;94944.47;;;13.43;93.16
39223;BME280;24936;46.328;11.026;2024-02-04T10:58:55;94929.59;;;13.32;98.68
39223;BME280;24936;46.328;11.026;2024-02-04T11:01:24;94928.53;;;13.25;94.79
39223;BME280;24936;46.328;11.026;2024-02-04T11:03:51;94933.53;;;13.28;94.34
39223;BME280;24936;46.328;11.026;2024-02-04T11:06:19;94935.34;;;14.47;76.32
39223;BME280;24936;46.328;11.026;2024-02-04T11:08:46;94936.41;;;14.99;72.31
39223;BME280;24936;46.328;11.026;2024-02-04T11:11:12;94934.84;;;15.14;66.54
39223;BME280;24936;46.328;11.026;2024-02-04T11:13:39;94934.78;;;15.33;60.59
39223;BME280;24936;46.328;11.026;2024-02-04T11:16:24;94922.22;;;15.35;61.20
39223;BME280;24936;46.328;11.026;2024-02-04T11:19:11;94929.25;;;15.52;58.34
39223;BME280;24936;46.328;11.026;2024-02-04T11:26:58;94941.22;;;17.96;40.14
39223;BME280;24936;46.328;11.026;2024-02-04T11:29:24;94928.25;;;17.53;44.06
39223;BME280;24936;46.328;11.026;2024-02-04T11:31:51;94921.25;;;15.44;49.85
39223;BME280;24936;46.328;11.026;2024-02-04T11:34:17;94918.00;;;15.58;58.63
39223;BME280;24936;46.328;11.026;2024-02-04T11:36:42;94908.75;;;15.63;62.39
39223;BME280;24936;46.328;11.026;2024-02-04T11:39:18;94904.94;;;15.31;58.33
39223;BME280;24936;46.328;11.026;2024-02-04T11:41:49;94910.44;;;15.03;62.22
39223;BME280;24936;46.328;11.026;2024-02-04T11:44:22;94900.19;;;15.08;61.93
39223;BME280;24936;46.328;11.026;2024-02-04T11:46:48;94915.56;;;14.78;62.35
39223;BME280;24936;46.328;11.026;2024-02-04T11:49:17;94917.75;;;15.78;54.78
39223;BME280;24936;46.328;11.026;2024-02-04T11:51:51;94916.81;;;15.96;52.45
39223;BME280;24936;46.328;11.026;2024-02-04T11:54:18;94908.06;;;15.26;57.70
39223;BME280;24936;46.328;11.026;2024-02-04T11:56:50;94912.91;;;14.78;60.88
39223;BME280;24936;46.328;11.026;2024-02-04T11:59:23;94905.13;;;15.29;62.45
39223;BME280;24936;46.328;11.026;2024-02-04T12:01:49;94915.59;;;16.74;49.36
39223;BME280;24936;46.328;11.026;2024-02-04T12:04:18;94904.47;;;17.92;50.82
39223;BME280;24936;46.328;11.026;2024-02-04T12:06:44;94900.25;;;18.06;42.49
39223;BME280;24936;46.328;11.026;2024-02-04T12:09:09;94898.47;;;17.50;44.75
39223;BME280;24936;46.328;11.026;2024-02-04T12:11:36;94893.81;;;17.52;43.26
39223;BME280;24936;46.328;11.026;2024-02-04T12:14:04;94893.59;;;18.33;40.45
39223;BME280;24936;46.328;11.026;2024-02-04T12:16:31;94897.13;;;18.25;40.08
39223;BME280;24936;46.328;11.026;2024-02-04T12:18:58;94889.22;;;17.37;41.34
39223;BME280;24936;46.328;11.026;2024-02-04T12:21:25;94884.63;;;17.23;42.74
39223;BME280;24936;46.328;11.026;2024-02-04T12:23:51;94881.66;;;17.97;42.13
39223;BME280;24936;46.328;11.026;2024-02-04T12:26:17;94888.72;;;18.37;38.88
39223;BME280;24936;46.328;11.026;2024-02-04T12:28:43;94888.31;;;18.48;37.89
39223;BME280;24936;46.328;11.026;2024-02-04T12:31:19;94883.06;;;18.40;40.18
39223;BME280;24936;46.328;11.026;2024-02-04T12:33:58;94889.03;;;19.78;35.81
39223;BME280;24936;46.328;11.026;2024-02-04T12:36:29;94872.69;;;18.22;37.63
39223;BME280;24936;46.328;11.026;2024-02-04T12:38:55;94862.69;;;18.24;39.50
39223;BME280;24936;46.328;11.026;2024-02-04T12:41:24;94856.63;;;18.07;40.78
39223;BME280;24936;46.328;11.026;2024-02-04T12:43:59;94862.81;;;17.76;40.47
39223;BME280;24936;46.328;11.026;2024-02-04T12:46:26;94856.50;;;17.68;40.79
39223;BME280;24936;46.328;11.026;2024-02-04T12:48:56;94849.44;;;17.84;40.12
39223;BME280;24936;46.328;11.026;2024-02-04T12:51:30;94850.31;;;17.36;38.65